Terminal Aerodrome Forecast
Issued by NWS

Home | Current Version | Previous Version | Text Only | Print | Product List | Glossary On
Versions: 1 2 3 4 5 6 7 8 9 10 11 12 13 14 15 16 17 18 19 20
000
FTUS44 KSJT 161100 RRA
TAFJCT
TAF
KJCT 161143Z 1612/1712 VRB03KT P6SM BKN025
     FM161600 12008KT P6SM SCT025 BKN040
     FM161800 11009KT P6SM VCSH SCT040 BKN100
     FM170000 05005KT P6SM SCT050 BKN200
     FM171000 13005KT P6SM BKN025=

USA.gov is the U.S. government's official web portal to all federal, state and local government web resources and services.